sensor_id;sensor_type;location;lat;lon;timestamp;pressure;altitude;pressure_sealevel;temperature;humidity
71344;BME280;59146;43.850;25.948;2022-08-19T00:00:05;100648.09;;;26.03;61.15
71344;BME280;59146;43.850;25.948;2022-08-19T00:02:32;100647.31;;;25.88;61.98
71344;BME280;59146;43.850;25.948;2022-08-19T00:04:58;100639.88;;;25.69;62.86
71344;BME280;59146;43.850;25.948;2022-08-19T00:07:23;100657.75;;;25.68;63.33
71344;BME280;59146;43.850;25.948;2022-08-19T00:09:49;100629.72;;;25.35;64.14
71344;BME280;59146;43.850;25.948;2022-08-19T00:12:14;100654.63;;;25.50;64.43
71344;BME280;59146;43.850;25.948;2022-08-19T00:14:40;100657.19;;;25.29;65.34
71344;BME280;59146;43.850;25.948;2022-08-19T00:17:07;100675.44;;;25.40;65.11
71344;BME280;59146;43.850;25.948;2022-08-19T00:19:34;100670.84;;;25.34;65.09
71344;BME280;59146;43.850;25.948;2022-08-19T00:22:00;100630.25;;;25.16;65.19
71344;BME280;59146;43.850;25.948;2022-08-19T00:24:28;100657.72;;;25.39;65.57
71344;BME280;59146;43.850;25.948;2022-08-19T00:26:54;100654.41;;;25.37;66.25
71344;BME280;59146;43.850;25.948;2022-08-19T00:29:21;100665.44;;;25.42;66.15
71344;BME280;59146;43.850;25.948;2022-08-19T00:31:47;100662.44;;;25.37;66.64
71344;BME280;59146;43.850;25.948;2022-08-19T00:34:13;100638.56;;;25.21;67.10
71344;BME280;59146;43.850;25.948;2022-08-19T00:36:40;100616.63;;;25.11;67.71
71344;BME280;59146;43.850;25.948;2022-08-19T00:39:07;100612.72;;;24.99;68.63
71344;BME280;59146;43.850;25.948;2022-08-19T00:41:32;100650.34;;;25.27;69.38
71344;BME280;59146;43.850;25.948;2022-08-19T00:46:30;100612.53;;;24.86;70.02
71344;BME280;59146;43.850;25.948;2022-08-19T00:48:59;100645.72;;;25.06;69.96
71344;BME280;59146;43.850;25.948;2022-08-19T00:51:27;100617.50;;;24.89;70.17
71344;BME280;59146;43.850;25.948;2022-08-19T00:53:56;100671.06;;;25.10;70.25
71344;BME280;59146;43.850;25.948;2022-08-19T00:56:23;100648.84;;;24.95;70.23
71344;BME280;59146;43.850;25.948;2022-08-19T00:58:51;100599.22;;;24.63;70.23
71344;BME280;59146;43.850;25.948;2022-08-19T01:01:17;100655.84;;;24.96;70.22
71344;BME280;59146;43.850;25.948;2022-08-19T01:03:42;100597.66;;;24.69;69.79
71344;BME280;59146;43.850;25.948;2022-08-19T01:06:08;100597.59;;;24.77;67.85
71344;BME280;59146;43.850;25.948;2022-08-19T01:08:33;100603.50;;;24.87;66.38
71344;BME280;59146;43.850;25.948;2022-08-19T01:10:59;100624.81;;;25.09;63.00
71344;BME280;59146;43.850;25.948;2022-08-19T01:13:30;100596.69;;;24.99;61.87
71344;BME280;59146;43.850;25.948;2022-08-19T01:16:00;100598.38;;;25.00;61.71
71344;BME280;59146;43.850;25.948;2022-08-19T01:18:27;100631.94;;;25.17;62.92
71344;BME280;59146;43.850;25.948;2022-08-19T01:21:02;100613.84;;;25.04;65.58
71344;BME280;59146;43.850;25.948;2022-08-19T01:23:28;100644.66;;;25.15;68.44
71344;BME280;59146;43.850;25.948;2022-08-19T01:26:11;100646.47;;;25.00;69.74
71344;BME280;59146;43.850;25.948;2022-08-19T01:28:37;100647.53;;;24.91;70.59
71344;BME280;59146;43.850;25.948;2022-08-19T01:31:02;100644.31;;;24.81;70.77
71344;BME280;59146;43.850;25.948;2022-08-19T01:33:28;100657.03;;;24.93;71.15
71344;BME280;59146;43.850;25.948;2022-08-19T01:36:07;100575.03;;;24.42;68.50
71344;BME280;59146;43.850;25.948;2022-08-19T01:38:36;100613.03;;;24.67;69.41
71344;BME280;59146;43.850;25.948;2022-08-19T01:41:02;100622.66;;;24.76;66.97
71344;BME280;59146;43.850;25.948;2022-08-19T01:43:28;100641.63;;;24.81;65.44
71344;BME280;59146;43.850;25.948;2022-08-19T01:45:54;100650.81;;;25.01;68.98
71344;BME280;59146;43.850;25.948;2022-08-19T01:48:19;100618.81;;;24.70;70.69
71344;BME280;59146;43.850;25.948;2022-08-19T01:50:44;100626.06;;;24.62;71.13
71344;BME280;59146;43.850;25.948;2022-08-19T01:53:11;100644.94;;;24.60;72.15
71344;BME280;59146;43.850;25.948;2022-08-19T01:55:39;100673.03;;;24.56;72.63
71344;BME280;59146;43.850;25.948;2022-08-19T01:58:08;100661.44;;;24.41;72.47
71344;BME280;59146;43.850;25.948;2022-08-19T02:00:35;100657.22;;;24.46;71.83
71344;BME280;59146;43.850;25.948;2022-08-19T02:03:00;100663.59;;;24.45;71.65
71344;BME280;59146;43.850;25.948;2022-08-19T02:05:26;100646.91;;;24.21;71.42
71344;BME280;59146;43.850;25.948;2022-08-19T02:07:57;100677.22;;;24.28;71.13
71344;BME280;59146;43.850;25.948;2022-08-19T02:10:24;100676.75;;;24.24;71.13
71344;BME280;59146;43.850;25.948;2022-08-19T02:12:49;100671.41;;;24.24;70.44
71344;BME280;59146;43.850;25.948;2022-08-19T02:15:17;100656.03;;;24.26;69.56
71344;BME280;59146;43.850;25.948;2022-08-19T02:17:44;100624.56;;;23.91;70.30
71344;BME280;59146;43.850;25.948;2022-08-19T02:20:10;100647.44;;;23.78;71.48
71344;BME280;59146;43.850;25.948;2022-08-19T02:22:35;100600.44;;;23.46;72.03
71344;BME280;59146;43.850;25.948;2022-08-19T02:25:01;100699.91;;;23.93;72.14
71344;BME280;59146;43.850;25.948;2022-08-19T02:27:27;100665.31;;;23.69;72.19
71344;BME280;59146;43.850;25.948;2022-08-19T02:29:53;100673.81;;;23.73;71.58
71344;BME280;59146;43.850;25.948;2022-08-19T02:32:19;100681.81;;;23.73;70.62
71344;BME280;59146;43.850;25.948;2022-08-19T02:34:46;100684.91;;;23.84;69.90
71344;BME280;59146;43.850;25.948;2022-08-19T02:37:11;100674.88;;;23.94;68.46
71344;BME280;59146;43.850;25.948;2022-08-19T02:39:58;100655.00;;;23.66;69.24
71344;BME280;59146;43.850;25.948;2022-08-19T02:42:23;100657.25;;;23.46;68.99
71344;BME280;59146;43.850;25.948;2022-08-19T02:44:49;100652.56;;;23.48;69.42
71344;BME280;59146;43.850;25.948;2022-08-19T02:47:17;100643.06;;;23.54;68.70
71344;BME280;59146;43.850;25.948;2022-08-19T02:49:44;100640.72;;;23.51;68.20
71344;BME280;59146;43.850;25.948;2022-08-19T02:52:10;100635.06;;;23.54;67.92
71344;BME280;59146;43.850;25.948;2022-08-19T02:54:36;100679.34;;;24.02;67.68
71344;BME280;59146;43.850;25.948;2022-08-19T02:57:02;100715.00;;;24.17;68.01
71344;BME280;59146;43.850;25.948;2022-08-19T02:59:30;100641.69;;;23.66;68.39
71344;BME280;59146;43.850;25.948;2022-08-19T03:01:56;100668.44;;;23.81;68.40
71344;BME280;59146;43.850;25.948;2022-08-19T03:04:22;100645.47;;;23.72;68.09
71344;BME280;59146;43.850;25.948;2022-08-19T03:06:48;100656.28;;;23.78;68.63
71344;BME280;59146;43.850;25.948;2022-08-19T03:09:14;100701.00;;;24.07;68.24
71344;BME280;59146;43.850;25.948;2022-08-19T03:11:40;100718.41;;;24.33;67.40
71344;BME280;59146;43.850;25.948;2022-08-19T03:14:07;100709.63;;;24.48;67.56
71344;BME280;59146;43.850;25.948;2022-08-19T03:16:43;100656.75;;;24.20;67.98
71344;BME280;59146;43.850;25.948;2022-08-19T03:19:09;100684.63;;;24.40;67.47
71344;BME280;59146;43.850;25.948;2022-08-19T03:21:35;100703.75;;;24.29;68.84
71344;BME280;59146;43.850;25.948;2022-08-19T03:24:07;100699.84;;;24.09;70.66
71344;BME280;59146;43.850;25.948;2022-08-19T03:26:34;100699.50;;;24.12;70.66
71344;BME280;59146;43.850;25.948;2022-08-19T03:29:03;100608.28;;;23.31;70.56
71344;BME280;59146;43.850;25.948;2022-08-19T03:31:29;100661.19;;;23.66;70.16
71344;BME280;59146;43.850;25.948;2022-08-19T03:33:56;100681.47;;;23.76;70.48
71344;BME280;59146;43.850;25.948;2022-08-19T03:36:24;100724.22;;;24.06;70.50
71344;BME280;59146;43.850;25.948;2022-08-19T03:38:52;100680.47;;;23.77;70.53
71344;BME280;59146;43.850;25.948;2022-08-19T03:41:21;100663.34;;;23.63;70.10
71344;BME280;59146;43.850;25.948;2022-08-19T03:43:47;100674.03;;;23.55;69.69
71344;BME280;59146;43.850;25.948;2022-08-19T03:46:19;100716.84;;;24.39;67.01
71344;BME280;59146;43.850;25.948;2022-08-19T03:48:50;100676.41;;;24.95;63.84
71344;BME280;59146;43.850;25.948;2022-08-19T03:51:33;100724.59;;;25.97;61.36
71344;BME280;59146;43.850;25.948;2022-08-19T03:54:01;100692.44;;;26.41;58.86
71344;BME280;59146;43.850;25.948;2022-08-19T03:56:28;100702.81;;;27.14;57.53
71344;BME280;59146;43.850;25.948;2022-08-19T03:58:55;100675.50;;;27.66;54.67
71344;BME280;59146;43.850;25.948;2022-08-19T04:01:24;100677.13;;;28.01;53.62
71344;BME280;59146;43.850;25.948;2022-08-19T04:03:52;100742.03;;;28.78;52.52
71344;BME280;59146;43.850;25.948;2022-08-19T04:06:32;100653.69;;;28.29;51.82
71344;BME280;59146;43.850;25.948;2022-08-19T04:09:02;100660.38;;;28.99;50.07
71344;BME280;59146;43.850;25.948;2022-08-19T04:11:31;100749.78;;;30.17;47.64
71344;BME280;59146;43.850;25.948;2022-08-19T04:13:56;100749.66;;;30.81;45.77
71344;BME280;59146;43.850;25.948;2022-08-19T04:16:24;100726.53;;;31.23;44.06
71344;BME280;59146;43.850;25.948;2022-08-19T04:18:50;100695.09;;;31.53;43.04
71344;BME280;59146;43.850;25.948;2022-08-19T04:21:22;100753.47;;;31.72;42.82
71344;BME280;59146;43.850;25.948;2022-08-19T04:23:48;100694.09;;;31.05;43.26
71344;BME280;59146;43.850;25.948;2022-08-19T04:26:19;100715.75;;;31.23;43.57
71344;BME280;59146;43.850;25.948;2022-08-19T04:28:45;100772.13;;;31.06;44.50
71344;BME280;59146;43.850;25.948;2022-08-19T04:31:17;100765.38;;;30.84;45.22
71344;BME280;59146;43.850;25.948;2022-08-19T04:33:43;100708.25;;;31.25;42.33
71344;BME280;59146;43.850;25.948;2022-08-19T04:36:18;100716.94;;;31.27;43.55
71344;BME280;59146;43.850;25.948;2022-08-19T04:38:44;100742.28;;;32.71;38.99
71344;BME280;59146;43.850;25.948;2022-08-19T04:41:10;100716.03;;;33.13;38.65
71344;BME280;59146;43.850;25.948;2022-08-19T04:43:53;100740.63;;;33.11;38.76
71344;BME280;59146;43.850;25.948;2022-08-19T04:46:19;100708.97;;;33.58;37.26
71344;BME280;59146;43.850;25.948;2022-08-19T04:48:45;100717.91;;;33.47;38.90
71344;BME280;59146;43.850;25.948;2022-08-19T04:51:11;100734.97;;;33.13;39.51
71344;BME280;59146;43.850;25.948;2022-08-19T04:53:39;100700.38;;;33.15;39.69
71344;BME280;59146;43.850;25.948;2022-08-19T04:56:11;100740.06;;;33.32;38.81
71344;BME280;59146;43.850;25.948;2022-08-19T04:58:37;100707.31;;;32.99;39.25
71344;BME280;59146;43.850;25.948;2022-08-19T05:01:04;100660.44;;;32.87;39.33
71344;BME280;59146;43.850;25.948;2022-08-19T05:03:30;100752.63;;;33.38;39.31
71344;BME280;59146;43.850;25.948;2022-08-19T05:06:05;100735.19;;;33.23;39.88
71344;BME280;59146;43.850;25.948;2022-08-19T05:08:33;100717.78;;;33.19;39.67
71344;BME280;59146;43.850;25.948;2022-08-19T05:10:59;100740.50;;;33.06;40.59
71344;BME280;59146;43.850;25.948;2022-08-19T05:13:26;100706.78;;;32.20;42.36
71344;BME280;59146;43.850;25.948;2022-08-19T05:15:58;100707.94;;;32.12;42.21
71344;BME280;59146;43.850;25.948;2022-08-19T05:18:24;100696.00;;;32.01;42.57
71344;BME280;59146;43.850;25.948;2022-08-19T05:21:12;100750.31;;;31.75;44.42
71344;BME280;59146;43.850;25.948;2022-08-19T05:23:57;100716.84;;;31.76;44.49
71344;BME280;59146;43.850;25.948;2022-08-19T05:26:23;100737.97;;;32.04;44.86
71344;BME280;59146;43.850;25.948;2022-08-19T05:28:54;100748.56;;;32.35;43.98
71344;BME280;59146;43.850;25.948;2022-08-19T05:31:20;100738.53;;;32.83;43.48
71344;BME280;59146;43.850;25.948;2022-08-19T05:33:46;100710.38;;;32.32;44.08
71344;BME280;59146;43.850;25.948;2022-08-19T05:36:12;100740.91;;;32.02;45.22
71344;BME280;59146;43.850;25.948;2022-08-19T05:38:38;100710.72;;;31.69;45.23
71344;BME280;59146;43.850;25.948;2022-08-19T05:41:13;100723.53;;;32.10;44.19
71344;BME280;59146;43.850;25.948;2022-08-19T05:43:40;100712.28;;;32.43;44.02
71344;BME280;59146;43.850;25.948;2022-08-19T05:46:06;100652.34;;;32.04;43.84
71344;BME280;59146;43.850;25.948;2022-08-19T05:48:33;100777.16;;;32.43;44.45
71344;BME280;59146;43.850;25.948;2022-08-19T05:51:04;100760.81;;;32.20;44.67
71344;BME280;59146;43.850;25.948;2022-08-19T05:53:31;100753.50;;;32.08;44.17
71344;BME280;59146;43.850;25.948;2022-08-19T05:55:56;100757.44;;;32.42;42.95
71344;BME280;59146;43.850;25.948;2022-08-19T05:58:22;100769.56;;;32.81;42.44
71344;BME280;59146;43.850;25.948;2022-08-19T06:00:49;100740.25;;;32.66;42.27
71344;BME280;59146;43.850;25.948;2022-08-19T06:03:14;100758.31;;;32.54;42.86
71344;BME280;59146;43.850;25.948;2022-08-19T06:05:40;100734.09;;;32.48;42.63
71344;BME280;59146;43.850;25.948;2022-08-19T06:08:06;100750.75;;;31.90;44.37
71344;BME280;59146;43.850;25.948;2022-08-19T06:10:32;100724.69;;;30.92;46.40
71344;BME280;59146;43.850;25.948;2022-08-19T06:12:58;100729.38;;;31.28;46.25
71344;BME280;59146;43.850;25.948;2022-08-19T06:15:23;100765.94;;;31.73;45.92
71344;BME280;59146;43.850;25.948;2022-08-19T06:17:50;100742.22;;;31.75;45.61
71344;BME280;59146;43.850;25.948;2022-08-19T06:20:16;100737.72;;;32.24;44.00
71344;BME280;59146;43.850;25.948;2022-08-19T06:22:45;100766.91;;;32.33;44.44
71344;BME280;59146;43.850;25.948;2022-08-19T06:25:12;100751.63;;;32.39;44.22
71344;BME280;59146;43.850;25.948;2022-08-19T06:27:38;100634.53;;;32.15;42.36
71344;BME280;59146;43.850;25.948;2022-08-19T06:30:04;100762.63;;;32.73;43.11
71344;BME280;59146;43.850;25.948;2022-08-19T06:32:30;100736.16;;;33.05;41.30
71344;BME280;59146;43.850;25.948;2022-08-19T06:34:56;100718.94;;;33.00;40.99
71344;BME280;59146;43.850;25.948;2022-08-19T06:37:21;100729.25;;;32.79;41.60
71344;BME280;59146;43.850;25.948;2022-08-19T06:39:48;100723.41;;;33.06;41.06
71344;BME280;59146;43.850;25.948;2022-08-19T06:42:14;100752.03;;;33.25;40.41
71344;BME280;59146;43.850;25.948;2022-08-19T06:44:44;100741.06;;;33.08;40.74
71344;BME280;59146;43.850;25.948;2022-08-19T06:47:14;100759.09;;;33.14;40.81
71344;BME280;59146;43.850;25.948;2022-08-19T06:49:41;100705.38;;;32.88;41.29
71344;BME280;59146;43.850;25.948;2022-08-19T06:52:08;100770.56;;;33.51;39.81
71344;BME280;59146;43.850;25.948;2022-08-19T06:54:33;100742.28;;;33.70;39.05
71344;BME280;59146;43.850;25.948;2022-08-19T06:57:00;100705.16;;;33.71;38.78
71344;BME280;59146;43.850;25.948;2022-08-19T06:59:30;100749.34;;;33.71;38.61
71344;BME280;59146;43.850;25.948;2022-08-19T07:01:58;100752.34;;;33.98;37.74
71344;BME280;59146;43.850;25.948;2022-08-19T07:04:30;100748.06;;;33.74;38.70
71344;BME280;59146;43.850;25.948;2022-08-19T07:07:07;100747.44;;;33.83;37.46
71344;BME280;59146;43.850;25.948;2022-08-19T07:09:36;100738.69;;;34.04;36.70
71344;BME280;59146;43.850;25.948;2022-08-19T07:12:04;100744.38;;;33.80;38.21
71344;BME280;59146;43.850;25.948;2022-08-19T07:14:32;100750.13;;;33.95;37.35
71344;BME280;59146;43.850;25.948;2022-08-19T07:16:57;100731.75;;;33.97;37.19
71344;BME280;59146;43.850;25.948;2022-08-19T07:19:25;100754.88;;;34.27;36.96
71344;BME280;59146;43.850;25.948;2022-08-19T07:21:52;100717.38;;;34.08;37.53
71344;BME280;59146;43.850;25.948;2022-08-19T07:24:22;100761.91;;;34.40;36.66
71344;BME280;59146;43.850;25.948;2022-08-19T07:26:49;100699.94;;;33.92;37.18
71344;BME280;59146;43.850;25.948;2022-08-19T07:29:16;100715.97;;;33.94;37.45
71344;BME280;59146;43.850;25.948;2022-08-19T07:31:42;100716.75;;;34.17;36.02
71344;BME280;59146;43.850;25.948;2022-08-19T07:34:09;100761.19;;;34.45;35.65
71344;BME280;59146;43.850;25.948;2022-08-19T07:36:39;100706.47;;;34.19;35.58
71344;BME280;59146;43.850;25.948;2022-08-19T07:39:12;100748.44;;;34.57;34.19
71344;BME280;59146;43.850;25.948;2022-08-19T07:41:38;100757.84;;;34.82;33.05
71344;BME280;59146;43.850;25.948;2022-08-19T07:44:05;100732.53;;;34.77;33.85
71344;BME280;59146;43.850;25.948;2022-08-19T07:46:37;100763.28;;;34.82;33.26
71344;BME280;59146;43.850;25.948;2022-08-19T07:49:04;100752.72;;;34.69;33.46
71344;BME280;59146;43.850;25.948;2022-08-19T07:51:30;100748.44;;;34.73;32.92
71344;BME280;59146;43.850;25.948;2022-08-19T07:53:55;100738.00;;;34.65;33.45
71344;BME280;59146;43.850;25.948;2022-08-19T07:56:21;100733.00;;;34.17;34.24
71344;BME280;59146;43.850;25.948;2022-08-19T07:58:49;100722.03;;;34.24;34.62
71344;BME280;59146;43.850;25.948;2022-08-19T08:01:18;100734.22;;;34.38;33.87
71344;BME280;59146;43.850;25.948;2022-08-19T08:03:44;100724.94;;;34.06;34.84
71344;BME280;59146;43.850;25.948;2022-08-19T08:06:28;100715.88;;;33.77;34.47
71344;BME280;59146;43.850;25.948;2022-08-19T08:09:13;100720.25;;;33.67;35.33
71344;BME280;59146;43.850;25.948;2022-08-19T08:11:56;100764.88;;;33.76;36.30
71344;BME280;59146;43.850;25.948;2022-08-19T08:14:31;100722.25;;;33.48;35.45
71344;BME280;59146;43.850;25.948;2022-08-19T08:16:58;100736.66;;;33.37;36.14
71344;BME280;59146;43.850;25.948;2022-08-19T08:19:26;100717.53;;;32.56;36.85
71344;BME280;59146;43.850;25.948;2022-08-19T08:21:56;100747.59;;;32.48;37.89
71344;BME280;59146;43.850;25.948;2022-08-19T08:24:23;100711.69;;;32.59;37.81
71344;BME280;59146;43.850;25.948;2022-08-19T08:26:49;100754.97;;;33.23;37.07
71344;BME280;59146;43.850;25.948;2022-08-19T08:29:14;100699.16;;;32.87;37.26
71344;BME280;59146;43.850;25.948;2022-08-19T08:31:42;100688.31;;;32.76;37.35
71344;BME280;59146;43.850;25.948;2022-08-19T08:34:10;100738.78;;;32.94;37.67
71344;BME280;59146;43.850;25.948;2022-08-19T08:36:37;100713.84;;;32.92;37.61
71344;BME280;59146;43.850;25.948;2022-08-19T08:39:25;100732.69;;;32.86;37.76
71344;BME280;59146;43.850;25.948;2022-08-19T08:42:18;100755.72;;;32.89;37.52
71344;BME280;59146;43.850;25.948;2022-08-19T08:47:20;100744.75;;;33.14;37.27
71344;BME280;59146;43.850;25.948;2022-08-19T08:50:04;100719.25;;;32.80;37.21
71344;BME280;59146;43.850;25.948;2022-08-19T08:52:33;100709.25;;;32.80;37.40
71344;BME280;59146;43.850;25.948;2022-08-19T08:55:07;100717.13;;;32.82;37.30
71344;BME280;59146;43.850;25.948;2022-08-19T08:57:55;100683.22;;;32.68;37.24
71344;BME280;59146;43.850;25.948;2022-08-19T09:00:41;100716.06;;;32.42;37.78
71344;BME280;59146;43.850;25.948;2022-08-19T09:03:23;100716.16;;;32.76;37.56
71344;BME280;59146;43.850;25.948;2022-08-19T09:06:00;100731.16;;;32.91;37.35
71344;BME280;59146;43.850;25.948;2022-08-19T09:08:39;100743.69;;;33.15;37.29
71344;BME280;59146;43.850;25.948;2022-08-19T09:11:11;100726.38;;;33.27;36.68
71344;BME280;59146;43.850;25.948;2022-08-19T09:16:57;100713.31;;;33.47;35.78
71344;BME280;59146;43.850;25.948;2022-08-19T09:19:23;100665.44;;;33.13;35.77
71344;BME280;59146;43.850;25.948;2022-08-19T09:21:48;100703.19;;;32.55;37.04
71344;BME280;59146;43.850;25.948;2022-08-19T09:24:15;100719.78;;;33.00;36.49
71344;BME280;59146;43.850;25.948;2022-08-19T09:26:41;100718.72;;;33.36;35.88
71344;BME280;59146;43.850;25.948;2022-08-19T09:29:08;100733.59;;;33.56;35.98
71344;BME280;59146;43.850;25.948;2022-08-19T09:31:34;100741.34;;;33.76;35.08
71344;BME280;59146;43.850;25.948;2022-08-19T09:33:59;100701.84;;;34.03;35.21
71344;BME280;59146;43.850;25.948;2022-08-19T09:36:27;100685.31;;;34.05;35.43
71344;BME280;59146;43.850;25.948;2022-08-19T09:38:58;100716.72;;;34.29;33.69
71344;BME280;59146;43.850;25.948;2022-08-19T09:41:24;100696.22;;;34.21;34.11
71344;BME280;59146;43.850;25.948;2022-08-19T09:43:52;100667.63;;;34.14;34.14
71344;BME280;59146;43.850;25.948;2022-08-19T09:46:19;100658.22;;;34.05;34.42
71344;BME280;59146;43.850;25.948;2022-08-19T09:48:49;100709.81;;;34.50;33.35
71344;BME280;59146;43.850;25.948;2022-08-19T09:51:22;100718.38;;;34.58;33.24
71344;BME280;59146;43.850;25.948;2022-08-19T09:53:50;100723.03;;;34.63;33.40
71344;BME280;59146;43.850;25.948;2022-08-19T09:56:18;100682.13;;;34.36;32.95
71344;BME280;59146;43.850;25.948;2022-08-19T09:58:44;100653.50;;;34.12;33.99
71344;BME280;59146;43.850;25.948;2022-08-19T10:01:16;100694.34;;;34.50;34.19
71344;BME280;59146;43.850;25.948;2022-08-19T10:03:41;100683.91;;;34.75;33.38
71344;BME280;59146;43.850;25.948;2022-08-19T10:06:06;100684.88;;;34.53;33.93
71344;BME280;59146;43.850;25.948;2022-08-19T10:08:35;100707.81;;;34.33;33.97
71344;BME280;59146;43.850;25.948;2022-08-19T10:11:03;100688.13;;;34.38;33.66
71344;BME280;59146;43.850;25.948;2022-08-19T10:13:30;100674.41;;;33.88;33.68
71344;BME280;59146;43.850;25.948;2022-08-19T10:16:05;100666.53;;;33.87;33.84
71344;BME280;59146;43.850;25.948;2022-08-19T10:18:32;100688.06;;;34.33;33.21
71344;BME280;59146;43.850;25.948;2022-08-19T10:21:08;100683.31;;;34.57;32.69
71344;BME280;59146;43.850;25.948;2022-08-19T10:23:34;100642.16;;;34.60;32.86
71344;BME280;59146;43.850;25.948;2022-08-19T10:26:01;100649.97;;;34.89;31.55
71344;BME280;59146;43.850;25.948;2022-08-19T10:28:28;100679.56;;;34.91;31.90
71344;BME280;59146;43.850;25.948;2022-08-19T10:30:54;100691.25;;;34.58;32.45
71344;BME280;59146;43.850;25.948;2022-08-19T10:33:19;100670.44;;;34.80;32.48
71344;BME280;59146;43.850;25.948;2022-08-19T10:35:45;100663.38;;;34.96;32.48
71344;BME280;59146;43.850;25.948;2022-08-19T10:38:12;100639.44;;;34.76;31.77
71344;BME280;59146;43.850;25.948;2022-08-19T10:40:37;100677.34;;;34.71;32.24
71344;BME280;59146;43.850;25.948;2022-08-19T10:43:03;100669.06;;;34.33;32.11
71344;BME280;59146;43.850;25.948;2022-08-19T10:45:28;100626.50;;;34.33;31.65
71344;BME280;59146;43.850;25.948;2022-08-19T10:47:53;100628.38;;;34.16;31.80
71344;BME280;59146;43.850;25.948;2022-08-19T10:50:19;100656.59;;;33.92;32.67
71344;BME280;59146;43.850;25.948;2022-08-19T10:53:05;100638.22;;;34.06;32.42
71344;BME280;59146;43.850;25.948;2022-08-19T10:55:34;100671.50;;;34.63;32.09
71344;BME280;59146;43.850;25.948;2022-08-19T10:58:20;100656.00;;;34.47;32.23
71344;BME280;59146;43.850;25.948;2022-08-19T11:00:56;100641.44;;;34.36;32.59
71344;BME280;59146;43.850;25.948;2022-08-19T11:03:24;100677.97;;;34.45;32.27
71344;BME280;59146;43.850;25.948;2022-08-19T11:06:04;100563.97;;;34.23;32.86
71344;BME280;59146;43.850;25.948;2022-08-19T11:08:30;100622.09;;;34.77;31.84
71344;BME280;59146;43.850;25.948;2022-08-19T11:10:58;100667.91;;;34.74;31.50
71344;BME280;59146;43.850;25.948;2022-08-19T11:13:29;100665.69;;;35.21;31.25
71344;BME280;59146;43.850;25.948;2022-08-19T11:16:01;100608.03;;;34.80;30.41
71344;BME280;59146;43.850;25.948;2022-08-19T11:18:27;100609.78;;;34.70;30.93
71344;BME280;59146;43.850;25.948;2022-08-19T11:20:52;100604.34;;;34.86;30.76
71344;BME280;59146;43.850;25.948;2022-08-19T11:23:18;100628.38;;;35.33;30.41
71344;BME280;59146;43.850;25.948;2022-08-19T11:25:44;100573.00;;;34.95;30.72
71344;BME280;59146;43.850;25.948;2022-08-19T11:28:11;100626.47;;;35.33;30.33
71344;BME280;59146;43.850;25.948;2022-08-19T11:30:37;100634.50;;;34.90;31.47
71344;BME280;59146;43.850;25.948;2022-08-19T11:33:03;100592.63;;;34.64;30.90
71344;BME280;59146;43.850;25.948;2022-08-19T11:35:28;100601.31;;;34.83;30.98
71344;BME280;59146;43.850;25.948;2022-08-19T11:37:54;100594.69;;;34.95;30.70
71344;BME280;59146;43.850;25.948;2022-08-19T11:40:21;100631.72;;;35.40;30.63
71344;BME280;59146;43.850;25.948;2022-08-19T11:42:46;100632.53;;;35.57;29.85
71344;BME280;59146;43.850;25.948;2022-08-19T11:45:20;100633.97;;;35.26;29.95
71344;BME280;59146;43.850;25.948;2022-08-19T11:47:46;100612.88;;;34.95;30.58
71344;BME280;59146;43.850;25.948;2022-08-19T11:50:12;100622.47;;;34.36;31.29
71344;BME280;59146;43.850;25.948;2022-08-19T11:52:38;100613.16;;;34.60;31.61
71344;BME280;59146;43.850;25.948;2022-08-19T11:55:04;100586.66;;;34.67;32.53
71344;BME280;59146;43.850;25.948;2022-08-19T11:57:30;100606.22;;;35.02;31.42
71344;BME280;59146;43.850;25.948;2022-08-19T11:59:55;100595.69;;;35.28;29.86
71344;BME280;59146;43.850;25.948;2022-08-19T12:02:21;100600.00;;;35.45;30.09
71344;BME280;59146;43.850;25.948;2022-08-19T12:04:48;100577.97;;;35.42;29.89
71344;BME280;59146;43.850;25.948;2022-08-19T12:07:13;100553.28;;;35.00;29.81
71344;BME280;59146;43.850;25.948;2022-08-19T12:09:39;100534.84;;;35.02;29.90
71344;BME280;59146;43.850;25.948;2022-08-19T12:12:05;100582.13;;;35.06;31.04
71344;BME280;59146;43.850;25.948;2022-08-19T12:14:30;100580.03;;;35.13;30.66
71344;BME280;59146;43.850;25.948;2022-08-19T12:16:57;100536.66;;;34.80;30.42
71344;BME280;59146;43.850;25.948;2022-08-19T12:19:22;100576.44;;;34.91;30.63
71344;BME280;59146;43.850;25.948;2022-08-19T12:21:50;100575.00;;;34.83;30.99
71344;BME280;59146;43.850;25.948;2022-08-19T12:24:16;100592.91;;;35.01;29.59
71344;BME280;59146;43.850;25.948;2022-08-19T12:26:48;100590.84;;;35.30;30.15
71344;BME280;59146;43.850;25.948;2022-08-19T12:29:13;100579.94;;;35.25;29.77
71344;BME280;59146;43.850;25.948;2022-08-19T12:31:40;100545.38;;;34.82;30.05
71344;BME280;59146;43.850;25.948;2022-08-19T12:34:05;100547.78;;;34.78;29.84
71344;BME280;59146;43.850;25.948;2022-08-19T12:36:31;100581.88;;;35.07;30.17
71344;BME280;59146;43.850;25.948;2022-08-19T12:38:58;100545.06;;;34.78;30.10
71344;BME280;59146;43.850;25.948;2022-08-19T12:41:25;100581.38;;;35.10;29.95
71344;BME280;59146;43.850;25.948;2022-08-19T12:43:50;100556.63;;;34.90;30.66
71344;BME280;59146;43.850;25.948;2022-08-19T12:46:17;100587.03;;;34.92;30.71
71344;BME280;59146;43.850;25.948;2022-08-19T12:48:43;100606.38;;;34.96;30.51
71344;BME280;59146;43.850;25.948;2022-08-19T12:51:13;100597.03;;;35.03;29.92
71344;BME280;59146;43.850;25.948;2022-08-19T12:53:39;100588.13;;;35.08;29.87